Map

Track Data

SID SEASON NUMBER BASIN SUBBASIN NAME ISO_TIME NATURE LAT LON WMO_WIND WMO_PRES WMO_AGENCY TRACK_TYPE DIST2LAND LANDFALL IFLAG USA_AGENCY USA_ATCF_ID USA_LAT USA_LON USA_RECORD USA_STATUS USA_WIND USA_PRES USA_SSHS USA_R34_NE USA_R34_SE USA_R34_SW USA_R34_NW USA_R50_NE USA_R50_SE USA_R50_SW USA_R50_NW USA_R64_NE USA_R64_SE USA_R64_SW USA_R64_NW USA_POCI USA_ROCI USA_RMW USA_EYE TOKYO_LAT TOKYO_LON TOKYO_GRADE TOKYO_WIND TOKYO_PRES TOKYO_R50_DIR TOKYO_R50_LONG TOKYO_R50_SHORT TOKYO_R30_DIR TOKYO_R30_LONG TOKYO_R30_SHORT TOKYO_LAND CMA_LAT CMA_LON CMA_CAT CMA_WIND CMA_PRES HKO_LAT HKO_LON HKO_CAT HKO_WIND HKO_PRES NEWDELHI_LAT NEWDELHI_LON NEWDELHI_GRADE NEWDELHI_WIND NEWDELHI_PRES NEWDELHI_CI NEWDELHI_DP NEWDELHI_POCI REUNION_LAT REUNION_LON REUNION_TYPE REUNION_WIND REUNION_PRES REUNION_TNUM REUNION_CI REUNION_RMW REUNION_R34_NE REUNION_R34_SE REUNION_R34_SW REUNION_R34_NW REUNION_R50_NE REUNION_R50_SE REUNION_R50_SW REUNION_R50_NW REUNION_R64_NE REUNION_R64_SE REUNION_R64_SW REUNION_R64_NW BOM_LAT BOM_LON BOM_TYPE BOM_WIND BOM_PRES BOM_TNUM BOM_CI BOM_RMW BOM_R34_NE BOM_R34_SE BOM_R34_SW BOM_R34_NW BOM_R50_NE BOM_R50_SE BOM_R50_SW BOM_R50_NW BOM_R64_NE BOM_R64_SE BOM_R64_SW BOM_R64_NW BOM_ROCI BOM_POCI BOM_EYE BOM_POS_METHOD BOM_PRES_METHOD NADI_LAT NADI_LON NADI_CAT NADI_WIND NADI_PRES WELLINGTON_LAT WELLINGTON_LON WELLINGTON_WIND WELLINGTON_PRES DS824_LAT DS824_LON DS824_STAGE DS824_WIND DS824_PRES TD9636_LAT TD9636_LON TD9636_STAGE TD9636_WIND TD9636_PRES TD9635_LAT TD9635_LON TD9635_WIND TD9635_PRES TD9635_ROCI NEUMANN_LAT NEUMANN_LON NEUMANN_CLASS NEUMANN_WIND NEUMANN_PRES MLC_LAT MLC_LON MLC_CLASS MLC_WIND MLC_PRES USA_GUST BOM_GUST BOM_GUST_PER REUNION_GUST REUNION_GUST_PER USA_SEAHGT USA_SEARAD_NE USA_SEARAD_SE USA_SEARAD_SW USA_SEARAD_NW STORM_SPEED STORM_DIR
1977026S09075 1977 9 SI MM FIFI 1977-01-25 18:00:00 TS -9.00000 75.3000 main 1769 1769 O________OO___ jtwc_sh SH111977 -9.00000 75.3000 -1 -9.00000 75.3000 TC -9.00000 75.3000 7 9 131
1977026S09075 1977 9 SI MM FIFI 1977-01-25 21:00:00 TS -9.30391 75.6536 main 1787 1787 P________PP___ SH111977 -9.31510 75.6673 -1 -9.31510 75.6673 TC -9.28154 75.6260 7 9 131
1977026S09075 1977 9 SI MM FIFI 1977-01-26 00:00:00 TS -9.58345 75.9806 main 1810 1810 O________OP___ jtwc_sh SH111977 -9.60000 76.0000 -1 -9.60000 76.0000 TC -9.55035 75.9419 7 8 131
1977026S09075 1977 9 SI MM FIFI 1977-01-26 03:00:00 TS -9.81796 76.2606 main 1822 1822 P________PP___ SH111977 -9.82996 76.2726 -1 -9.82996 76.2726 TC -9.79397 76.2368 7 7 129
1977026S09075 1977 9 SI MM FIFI 1977-01-26 06:00:00 TS -10.0000 76.5000 main 1838 1835 O________OO___ jtwc_sh SH111977 -10.0000 76.5000 -1 -10.0000 76.5000 TC 25 -10.0000 76.5000 1 5 125
1977026S09075 1977 9 SI MM FIFI 1977-01-26 09:00:00 TS -10.1252 76.7134 main 1844 1841 P________PP___ SH111977 -10.1075 76.7076 -1 -10.1075 76.7076 TC 25 -10.1608 76.7249 1 5 120
1977026S09075 1977 9 SI MM FIFI 1977-01-26 12:00:00 TS -10.2291 76.9076 main 1850 1850 O________OP___ jtwc_sh SH111977 -10.2000 76.9000 -1 -10.2000 76.9000 TC 25 -10.2873 76.9228 1 4 122
1977026S09075 1977 9 SI MM FIFI 1977-01-26 15:00:00 TS -10.3650 77.0981 main 1867 1864 P________PP___ SH111977 -10.3500 77.0925 -1 -10.3500 77.0925 TC 25 -10.3952 77.1093 1 5 125
1977026S09075 1977 9 SI MM FIFI 1977-01-26 18:00:00 TS -10.5000 77.3000 main 1873 1871 O________OO___ jtwc_sh SH111977 -10.5000 77.3000 -1 -10.5000 77.3000 TC 25 -10.5000 77.3000 1 5 118
1977026S09075 1977 9 SI MM FIFI 1977-01-26 21:00:00 TS -10.6070 77.5542 main 1878 1876 P________PP___ SH111977 -10.6000 77.5500 -1 -10.6000 77.5500 TC 25 -10.6211 77.5624 1 5 113
1977026S09075 1977 9 SI MM FIFI 1977-01-27 00:00:00 TS -10.7142 77.8083 main 1885 1883 O________OP___ jtwc_sh SH111977 -10.7000 77.8000 -1 -10.7000 77.8000 TC 25 -10.7427 77.8248 1 5 117
1977026S09075 1977 9 SI MM FIFI 1977-01-27 03:00:00 TS -10.8510 78.0416 main 1904 1901 P________PP___ SH111977 -10.8425 78.0375 -1 -10.8425 78.0375 TC 25 -10.8679 78.0499 1 5 127
1977026S09075 1977 9 SI MM FIFI 1977-01-27 06:00:00 TS -11.0000 78.2000 main 1912 1912 O________OO___ jtwc_sh SH111977 -11.0000 78.2000 -1 -11.0000 78.2000 TC 25 -11.0000 78.2000 1 4 147
1977026S09075 1977 9 SI MM FIFI 1977-01-27 09:00:00 TS -11.1503 78.2425 main 1934 1934 P________PP___ SH111977 -11.1500 78.2450 -1 -11.1500 78.2450 TC 25 -11.1508 78.2373 1 3 0
1977026S09075 1977 9 SI MM FIFI 1977-01-27 12:00:00 TS -11.3025 78.1992 main 1945 1945 O________OP___ jtwc_sh SH111977 -11.3000 78.2000 -1 -11.3000 78.2000 TC 25 -11.3074 78.1977 1 3 203
1977026S09075 1977 9 SI MM FIFI 1977-01-27 15:00:00 TS -11.4534 78.1131 main 1969 1969 P________PP___ SH111977 -11.4500 78.1150 -1 -11.4500 78.1150 TC 25 -11.4603 78.1092 1 4 213
1977026S09075 1977 9 SI MM FIFI 1977-01-27 18:00:00 TS -11.6000 78.0000 main 1981 1981 O________OO___ jtwc_sh SH111977 -11.6000 78.0000 -1 -11.6000 78.0000 TC 25 -11.6000 78.0000 1 4 213
1977026S09075 1977 9 SI MM FIFI 1977-01-27 21:00:00 TS -11.7535 77.9143 main 2005 2005 P________PP___ SH111977 -11.7650 77.9000 -1 -11.7650 77.9000 TC 25 -11.7305 77.9428 1 3 212
1977026S09075 1977 9 SI MM FIFI 1977-01-28 00:00:00 TS -11.8816 77.8225 main 2018 2018 O________OP___ jtwc_sh SH111977 -11.9000 77.8000 -1 -11.9000 77.8000 TC 25 -11.8448 77.8675 1 3 220
1977026S09075 1977 9 SI MM FIFI 1977-01-28 03:00:00 TS -11.9605 77.7345 main 2031 2031 P________PP___ SH111977 -11.9725 77.7225 -1 -11.9725 77.7225 TC 25 -11.9367 77.7585 1 2 241
1977026S09075 1977 9 SI MM FIFI 1977-01-28 06:00:00 TS -12.0000 77.6000 main 2032 2032 O________OO___ jtwc_sh SH111977 -12.0000 77.6000 -1 -12.0000 77.6000 TC 25 -12.0000 77.6000 1 4 261
1977026S09075 1977 9 SI MM FIFI 1977-01-28 09:00:00 TS -12.0146 77.3743 main 2036 2036 P________PP___ SH111977 -12.0075 77.3800 -1 -12.0075 77.3800 TC 25 -12.0289 77.3631 1 5 269
1977026S09075 1977 9 SI MM FIFI 1977-01-28 12:00:00 TS -12.0101 77.0933 main 2042 2042 O________OP___ jtwc_sh SH111977 -12.0000 77.1000 -1 -12.0000 77.1000 TC 25 -12.0303 77.0799 1 6 271
1977026S09075 1977 9 SI MM FIFI 1977-01-28 15:00:00 TS -12.0055 76.7839 main 2049 2049 P________PP___ SH111977 -12.0000 76.7850 -1 -12.0000 76.7850 TC 25 -12.0164 76.7818 1 6 271
1977026S09075 1977 9 SI MM FIFI 1977-01-28 18:00:00 TS -12.0000 76.5000 main 2056 2056 O________OO___ jtwc_sh SH111977 -12.0000 76.5000 -1 -12.0000 76.5000 TC 25 -12.0000 76.5000 1 4 271
1977026S09075 1977 9 SI MM FIFI 1977-01-28 21:00:00 TS -11.9985 76.3320 main 2061 2052 P________PP___ SH111977 -11.9999 76.3425 -1 -11.9999 76.3425 TC 25 -11.9956 76.3109 1 4 280
1977026S09075 1977 9 SI MM FIFI 1977-01-29 00:00:00 TS -11.9406 76.1393 reunion main 2055 2055 O____O___OP_O_ jtwc_sh SH111977 -12.0000 76.2000 -1 -11.6000 75.9000 3 9.90000 -12.0000 76.2000 TC 25 -11.9920 76.1374 1 -11.6000 75.9000 TC 35 5 279
1977026S09075 1977 9 SI MM FIFI 1977-01-29 03:00:00 TS -11.9256 75.8382 main 2063 2063 P____P___PP_P_ SH111977 -11.9999 75.9875 -1 -11.7102 75.4326 3 -11.9999 75.9875 TC 25 -11.9924 75.9452 1 -11.7102 75.4326 TC 35 7 271
1977026S09075 1977 9 SI MM FIFI 1977-01-29 06:00:00 TS -11.9333 75.4667 reunion main 2072 2071 O____O___OO_O_ jtwc_sh SH111977 -12.0000 75.7000 -1 -11.8000 75.0000 99 9.90000 -12.0000 75.7000 TC 25 -12.0000 75.7000 1 -11.8000 75.0000 TC 35 8 269
1977026S09075 1977 9 SI MM FIFI 1977-01-29 09:00:00 TS -11.9427 75.0464 main 2062 2028 P____P___PP_P_ SH111977 -11.9925 75.3225 -1 -11.8573 74.6149 99 -11.9925 75.3225 TC 25 -12.0139 75.3575 1 -11.8573 74.6149 TC 35 8 268
1977026S09075 1977 9 SI MM FIFI 1977-01-29 12:00:00 TS -11.9670 74.6320 reunion main 2018 1981 O____O___OP_O_ jtwc_sh SH111977 -12.0000 74.9000 -1 -11.9000 74.2000 99 9.90000 -12.0000 74.9000 TC 25 -12.0352 74.9599 1 -11.9000 74.2000 TC 35 9 266
1977026S09075 1977 9 SI MM FIFI 1977-01-29 15:00:00 TS -12.0098 74.1635 main 1981 1928 P____P___PP_P_ SH111977 -12.0349 74.5000 -1 -11.9577 73.6425 99 -12.0349 74.5000 TC 25 -12.0639 74.5324 1 -11.9577 73.6425 TC 35 9 264
1977026S09075 1977 9 SI MM FIFI 1977-01-29 18:00:00 TS -12.0600 73.7000 reunion main 1928 1890 O____O___OO_O_ jtwc_sh SH111977 -12.1000 74.1000 -1 -12.0000 73.1000 99 9.90000 -12.1000 74.1000 TC 25 -12.1000 74.1000 1 -12.0000 73.1000 TC 35 8 263
1977026S09075 1977 9 SI MM FIFI 1977-01-29 21:00:00 TS -12.1193 73.3043 main 1890 1856 P____P___PP_P_ SH111977 -12.2074 73.7001 -1 -12.0073 72.7125 99 -12.2074 73.7001 TC 25 -12.1671 73.6962 1 -12.0073 72.7125 TC 35 8 262
1977026S09075 1977 9 SI MM FIFI 1977-01-30 00:00:00 TS -12.1675 72.9386 reunion main 1847 1819 O____O___OP_O_ jtwc_sh SH111977 -12.3000 73.3000 -1 -12.0000 72.4000 3 9.90000 -12.3000 73.3000 TC 25 -12.2373 73.2929 1 -12.0000 72.4000 TC 35 7 264
1977026S09075 1977 9 SI MM FIFI 1977-01-30 03:00:00 TS -12.1897 72.5756 main 1819 1782 P____P___PP_P_ SH111977 -12.3299 72.9000 -1 -11.9999 72.0925 3 -12.3299 72.9000 TC 25 -12.2889 72.8931 1 -11.9999 72.0925 TC 35 7 269
1977026S09075 1977 9 SI MM FIFI 1977-01-30 06:00:00 TS -12.1800 72.2200 reunion main 1782 1760 O____O___OO_O_ jtwc_sh SH111977 -12.3000 72.5000 -1 -12.0000 71.8000 99 9.90000 -12.3000 72.5000 TC 25 -12.3000 72.5000 1 -12.0000 71.8000 TC 35 7 275
1977026S09075 1977 9 SI MM FIFI 1977-01-30 09:00:00 TS -12.1345 71.8659 main 1760 1723 P____P___PP_P_ SH111977 -12.2150 72.0925 -1 -11.9999 71.5075 99 -12.2150 72.0925 TC 25 -12.2428 72.1298 1 -11.9999 71.5075 TC 35 7 279
1977026S09075 1977 9 SI MM FIFI 1977-01-30 12:00:00 TS -12.0689 71.5130 reunion main 1723 1702 O____O___OP_O_ jtwc_sh SH111977 -12.1000 71.7000 -1 -12.0000 71.2000 99 9.90000 -12.1000 71.7000 TC 25 -12.1445 71.7648 1 -12.0000 71.2000 TC 35 7 281
1977026S09075 1977 9 SI MM FIFI 1977-01-30 15:00:00 TS -12.0048 71.1585 main 1702 1673 P____P___PP_P_ SH111977 -11.9999 71.3500 -1 -12.0000 70.8500 99 -11.9999 71.3500 TC 25 -12.0240 71.3924 1 -12.0000 70.8500 TC 37 7 280
1977026S09075 1977 9 SI MM FIFI 1977-01-30 18:00:00 TS -11.9400 70.8000 reunion main 1673 1646 O____O___OO_O_ jtwc_sh SH111977 -11.9000 71.0000 -1 -12.0000 70.5000 99 9.90000 -11.9000 71.0000 TC 25 -11.9000 71.0000 1 -12.0000 70.5000 TC 40 7 280
1977026S09075 1977 9 SI MM FIFI 1977-01-30 21:00:00 TS -11.8828 70.4556 main 1646 1617 P____P___PP_P_ SH111977 -11.7999 70.6225 -1 -12.0073 70.2225 99 -11.7999 70.6225 TC 25 -11.7998 70.5879 1 -12.0073 70.2225 TC 42 7 280
1977026S09075 1977 9 SI MM FIFI 1977-01-31 00:00:00 TS -11.8199 70.0705 reunion main 1617 1581 O____O___OP_O_ jtwc_sh SH111977 -11.7000 70.2000 -1 -12.0000 69.9000 3 9.90000 -11.7000 70.2000 TC 25 -11.6996 70.1526 1 -12.0000 69.9000 TC 45 8 280
1977026S09075 1977 9 SI MM FIFI 1977-01-31 03:00:00 TS -11.7429 69.6022 main 1581 1538 P____P___PP_P_ SH111977 -11.5999 69.7225 -1 -11.9575 69.4375 3 -11.5999 69.7225 TC 25 -11.5997 69.6910 1 -11.9575 69.4375 TC 47 10 279
1977026S09075 1977 9 SI MM FIFI 1977-01-31 06:00:00 TS -11.6600 69.0800 reunion main 1538 1504 O____O___OO_O_ jtwc_sh SH111977 -11.5000 69.2000 -1 -11.9000 68.9000 99 9.90000 -11.5000 69.2000 TC 25 -11.5000 69.2000 1 -11.9000 68.9000 TC 50 10 278
1977026S09075 1977 9 SI MM FIFI 1977-01-31 09:00:00 TS -11.5924 68.5522 main 1504 1462 P____P___PP_P_ SH111977 -11.3999 68.6575 -1 -11.8872 68.3878 99 -11.3999 68.6575 TC 25 -11.3879 68.6705 1 -11.8872 68.3878 TC 52 11 279
1977026S09075 1977 9 SI MM FIFI 1977-01-31 12:00:00 TS -11.4955 67.9830 reunion main 1462 1430 O____O___OP_O_ jtwc_sh SH111977 -11.3000 68.1000 -1 -11.8000 67.8000 99 9.90000 -11.3000 68.1000 TC 25 -11.2776 68.1148 1 -11.8000 67.8000 TC 55 12 283
1977026S09075 1977 9 SI MM FIFI 1977-01-31 15:00:00 TS -11.3188 67.3472 main 1422 1392 P____P___PP_P_ SH111977 -11.1924 67.5425 -1 -11.5152 67.0496 99 -11.1924 67.5425 TC 25 -11.1785 67.5517 1 -11.5152 67.0496 TC 57 13 286
1977026S09075 1977 9 SI MM FIFI 1977-01-31 18:00:00 TS -11.1400 66.7200 reunion main 1393 1364 O____O___OO_O_ jtwc_sh SH111977 -11.1000 67.0000 -1 -11.2000 66.3000 99 9.90000 -11.1000 67.0000 TC 25 -11.1000 67.0000 1 -11.2000 66.3000 TC 60 12 284
1977026S09075 1977 9 SI MM FIFI 1977-01-31 21:00:00 TS -11.0319 66.1917 main 1365 1330 P____P___PP_P_ SH111977 -11.0349 66.4925 -1 -11.0347 65.7278 99 -11.0349 66.4925 TC 25 -11.0202 66.5178 1 -11.0347 65.7278 TC 62 10 280
1977026S09075 1977 9 SI MM FIFI 1977-02-01 00:00:00 TS -10.9533 65.6889 reunion main 1330 1312 O____O___OP_O_ jtwc_sh SH111977 -11.0000 66.0000 -1 -10.9000 65.2000 3 9.90000 -11.0000 66.0000 TC 25 -10.9664 66.0444 1 -10.9000 65.2000 TC 65 10 281
1977026S09075 1977 9 SI MM FIFI 1977-02-01 03:00:00 TS -10.8258 65.1585 main 1314 1276 P____P___PP_P_ SH111977 -10.9698 65.5299 -1 -10.6175 64.5920 3 -10.9698 65.5299 TC 30 -10.9544 65.5489 1 -10.6175 64.5920 TC 65 11 278
1977026S09075 1977 9 SI MM FIFI 1977-02-01 06:00:00 TS -10.8000 64.6000 reunion main 1276 1221 O____O___OO_O_ jtwc_sh SH111977 -11.0000 65.0000 -1 -10.5000 64.0000 99 9.90000 -11.0000 65.0000 TC 35 -11.0000 65.0000 2 -10.5000 64.0000 TC 65 12 262
1977026S09075 1977 9 SI MM FIFI 1977-02-01 09:00:00 TS -10.9939 63.9869 main 1221 1158 P____P___PP_P_ SH111977 -11.1200 64.3300 -1 -10.8099 63.4704 99 -11.1200 64.3300 TC 35 -11.1099 64.3335 2 -10.8099 63.4704 TC 62 13 248
1977026S09075 1977 9 SI MM FIFI 1977-02-01 12:00:00 TS -11.2951 63.3631 reunion main 1158 1096 O____O___OP_O_ jtwc_sh SH111977 -11.3000 63.6000 -1 -11.3000 63.0000 99 9.90000 -11.3000 63.6000 TC 35 -11.2757 63.6155 2 -11.3000 63.0000 TC 60 13 244
1977026S09075 1977 9 SI MM FIFI 1977-02-01 15:00:00 TS -11.5727 62.7658 main 1096 1045 P____P___PP_P_ SH111977 -11.4925 62.8775 -1 -11.6998 62.5923 99 -11.4925 62.8775 TC 35 -11.4786 62.8896 2 -11.6998 62.5923 TC 57 13 244
1977026S09075 1977 9 SI MM FIFI 1977-02-01 18:00:00 TS -11.8600 62.2000 reunion main 1035 991 O____O___OO_O_ jtwc_sh SH111977 -11.7000 62.2000 -1 -12.1000 62.2000 99 9.90000 -11.7000 62.2000 TC 35 -11.7000 62.2000 2 -12.1000 62.2000 TC 55 12 241
1977026S09075 1977 9 SI MM FIFI 1977-02-01 21:00:00 TS -12.1557 61.6845 main 981 939 P____P___PP_P_ SH111977 -11.8923 61.6273 -1 -12.5524 61.7727 99 -11.8923 61.6273 TC 35 -11.8893 61.6224 2 -12.5524 61.7727 TC 52 11 241
1977026S09075 1977 9 SI MM FIFI 1977-02-02 00:00:00 TS -12.4192 61.1768 reunion main 939 898 O____O___OP_O_ jtwc_sh SH111977 -12.1000 61.1000 -1 -12.9000 61.3000 3 9.90000 -12.1000 61.1000 TC 35 -12.0961 61.0839 2 -12.9000 61.3000 TC 50 11 247
1977026S09075 1977 9 SI MM FIFI 1977-02-02 03:00:00 TS -12.5979 60.6365 main 894 856 P____P___PP_P_ SH111977 -12.3273 60.5648 -1 -13.0026 60.7497 3 -12.3273 60.5648 TC 35 -12.3299 60.5535 2 -13.0026 60.7497 TC 45 11 252
1977026S09075 1977 9 SI MM FIFI 1977-02-02 06:00:00 TS -12.7600 60.0800 reunion main 856 828 O____O___OO_O_ jtwc_sh SH111977 -12.6000 60.0000 -1 -13.0000 60.2000 99 9.90000 -12.6000 60.0000 TC 35 -12.6000 60.0000 2 -13.0000 60.2000 TC 40 12 252
1977026S09075 1977 9 SI MM FIFI 1977-02-02 09:00:00 TS -12.9588 59.5138 main 817 784 P____P___PP_P_ SH111977 -12.9349 59.3650 -1 -13.0048 59.7422 99 -12.9349 59.3650 TC 35 -12.9143 59.3547 2 -13.0048 59.7422 TC 37 12 248
1977026S09075 1977 9 SI MM FIFI 1977-02-02 12:00:00 TS -13.2126 58.9371 reunion main 782 742 O____O___OP_O_ jtwc_sh SH111977 -13.3000 58.7000 -1 -13.1000 59.3000 99 9.90000 -13.3000 58.7000 TC 35 -13.2629 58.6854 2 -13.1000 59.3000 TC 35 13 243
1977026S09075 1977 9 SI MM FIFI 1977-02-02 15:00:00 TS -13.5510 58.3297 main 730 693 P____P___PP_P_ SH111977 -13.6499 58.0423 -1 -13.4126 58.7703 99 -13.6499 58.0423 TC 35 -13.6300 58.0233 2 -13.4126 58.7703 TC 35 13 238
1977026S09075 1977 9 SI MM FIFI 1977-02-02 18:00:00 TS -13.9200 57.7600 reunion main 693 660 O____O___OO_O_ jtwc_sh SH111977 -14.0000 57.4000 -1 -13.8000 58.3000 99 9.90000 -14.0000 57.4000 TC 35 -14.0000 57.4000 2 -13.8000 58.3000 TC 35 12 235
1977026S09075 1977 9 SI MM FIFI 1977-02-02 21:00:00 TS -14.2594 57.2759 main 649 618 P____P___PP_P_ SH111977 -14.3500 56.7624 -1 -14.1073 58.0272 99 -14.3500 56.7624 TC 35 -14.3823 56.8004 2 -14.1073 58.0272 TC 37 11 233
1977026S09075 1977 9 SI MM FIFI 1977-02-03 00:00:00 TS -14.5920 56.8501 reunion main 618 591 O____O___OP_O_ jtwc_sh SH111977 -14.7000 56.2000 -1 -14.4000 57.8000 3 9.90000 -14.7000 56.2000 TC 35 -14.7599 56.2506 2 -14.4000 57.8000 TC 40 11 231
1977026S09075 1977 9 SI MM FIFI 1977-02-03 03:00:00 TS -14.9275 56.4311 main 593 565 P____P___PP_P_ SH111977 -15.0724 55.7325 -1 -14.6925 57.4575 3 -15.0724 55.7325 TC 35 -15.1075 55.7755 2 -14.6925 57.4575 TC 40 10 229
1977026S09075 1977 9 SI MM FIFI 1977-02-03 06:00:00 TS -15.2400 56.0800 reunion main 567 541 O____O___OO_O_ jtwc_sh SH111977 -15.4000 55.4000 -1 -15.0000 57.1000 99 9.90000 -15.4000 55.4000 TC 35 -15.4000 55.4000 2 -15.0000 57.1000 TC 40 8 224
1977026S09075 1977 9 SI MM FIFI 1977-02-03 09:00:00 TS -15.5329 55.8346 main 545 527 P____P___PP_P_ SH111977 -15.6374 55.2123 -1 -15.3874 56.8001 99 -15.6374 55.2123 TC 35 -15.6149 55.1485 2 -15.3874 56.8001 TC 42 7 219
1977026S09075 1977 9 SI MM FIFI 1977-02-03 12:00:00 TS -15.7548 55.6388 reunion main 521 521 O____O___OP_O_ jtwc_sh SH111977 -15.8000 55.1000 -1 -15.7000 56.5000 99 9.90000 -15.8000 55.1000 TC 35 -15.7741 54.9939 2 -15.7000 56.5000 TC 45 5 234
1977026S09075 1977 9 SI MM FIFI 1977-02-03 15:00:00 TS -15.8333 55.4123 main 526 506 P____P___PP_P_ SH111977 -15.9150 54.9500 -1 -15.7201 56.1345 99 -15.9150 54.9500 TC 35 -15.8964 54.8925 2 -15.7201 56.1345 TC 47 5 249
1977026S09075 1977 9 SI MM FIFI 1977-02-03 18:00:00 TS -15.9200 55.2000 reunion main 506 489 O____O___OO_O_ jtwc_sh SH111977 -16.0000 54.8000 -1 -15.8000 55.8000 99 9.90000 -16.0000 54.8000 TC 35 -16.0000 54.8000 2 -15.8000 55.8000 TC 50 5 225
1977026S09075 1977 9 SI MM FIFI 1977-02-03 21:00:00 TS -16.1979 55.0316 main 489 483 P____P___PP_P_ SH111977 -16.1000 54.6500 -1 -16.3498 55.6002 99 -16.1000 54.6500 TC 35 -16.0899 54.6578 2 -16.3498 55.6002 TC 52 6 210
1977026S09075 1977 9 SI MM FIFI 1977-02-04 00:00:00 TS -16.4740 54.8629 reunion main 486 465 O____O___OP_O_ jtwc_sh SH111977 -16.2000 54.5000 -1 -16.9000 55.4000 3 9.90000 -16.2000 54.5000 TC 35 -16.1699 54.5146 2 -16.9000 55.4000 TC 55 5 224
1977026S09075 1977 9 SI MM FIFI 1977-02-04 03:00:00 TS -16.5800 54.6447 main 458 438 P____P___PP_P_ SH111977 -16.2850 54.3574 -1 -17.0325 55.0723 3 -16.2850 54.3574 TC 35 -16.2649 54.3640 2 -17.0325 55.0723 TC 57 5 250
1977026S09075 1977 9 SI MM FIFI 1977-02-04 06:00:00 TS -16.6400 54.4000 reunion main 438 421 O____O___OO_O_ jtwc_sh SH111977 -16.4000 54.2000 -1 -17.0000 54.7000 99 9.90000 -16.4000 54.2000 TC 35 -16.4000 54.2000 2 -17.0000 54.7000 TC 60 5 250
1977026S09075 1977 9 SI MM FIFI 1977-02-04 09:00:00 TS -16.7477 54.1518 main 421 400 P____P___PP_P_ SH111977 -16.5700 54.0075 -1 -16.9999 54.3649 99 -16.5700 54.0075 TC 35 -16.5988 54.0144 2 -16.9999 54.3649 TC 60 6 243
1977026S09075 1977 9 SI MM FIFI 1977-02-04 12:00:00 TS -16.8880 53.8830 reunion main 400 375 O____O___OP_O_ jtwc_sh SH111977 -16.8000 53.8000 -1 -17.0000 54.0000 99 9.90000 -16.8000 53.8000 TC 35 -16.8400 53.8150 2 -17.0000 54.0000 TC 60 6 239
1977026S09075 1977 9 SI MM FIFI 1977-02-04 15:00:00 TS -17.0823 53.5757 main 380 356 P____P___PP_P_ SH111977 -17.0850 53.6000 -1 -17.0652 53.5352 99 -17.0850 53.6000 TC 35 -17.1113 53.6081 2 -17.0652 53.5352 TC 62 7 236
1977026S09075 1977 9 SI MM FIFI 1977-02-04 18:00:00 TS -17.2800 53.2800 reunion main 360 336 O____O___OO_O_ jtwc_sh SH111977 -17.4000 53.4000 -1 -17.1000 53.1000 99 9.90000 -17.4000 53.4000 TC 35 -17.4000 53.4000 2 -17.1000 53.1000 TC 65 6 241
1977026S09075 1977 9 SI MM FIFI 1977-02-04 21:00:00 TS -17.3705 53.0302 main 336 323 P____P___PP_P_ SH111977 -17.7000 53.1999 -1 -16.8874 52.7897 99 -17.7000 53.1999 TC 35 -17.6776 53.1718 2 -16.8874 52.7897 TC 67 5 237
1977026S09075 1977 9 SI MM FIFI 1977-02-05 00:00:00 TS -17.5540 52.8296 reunion main 329 324 O____O___OP_O_ jtwc_sh SH111977 -18.0000 53.0000 -1 -16.9000 52.6000 4 9.90000 -18.0000 53.0000 TC 35 -17.9701 52.9478 2 -16.9000 52.6000 TC 70 7 209
1977026S09075 1977 9 SI MM FIFI 1977-02-05 03:00:00 TS -18.0195 52.6542 main 335 326 P____P___PP_P_ SH111977 -18.2925 52.7775 -1 -17.6174 52.4829 4 -18.2925 52.7775 TC 35 -18.2776 52.7500 2 -17.6174 52.4829 TC 72 10 194
1977026S09075 1977 9 SI MM FIFI 1977-02-05 06:00:00 TS -18.5600 52.5600 reunion main 340 340 O____O___OO_O_ jtwc_sh SH111977 -18.6000 52.6000 -1 -18.5000 52.5000 99 9.90000 -18.6000 52.6000 TC 35 -18.6000 52.6000 2 -18.5000 52.5000 TC 75 10 184
1977026S09075 1977 9 SI MM FIFI 1977-02-05 09:00:00 TS -18.9727 52.5785 main 348 329 P____P___PP_P_ SH111977 -18.9425 52.5199 -1 -19.0175 52.6623 99 -18.9425 52.5199 TC 35 -18.9436 52.5282 2 -19.0175 52.6623 TC 72 8 173
1977026S09075 1977 9 SI MM FIFI 1977-02-05 12:00:00 TS -19.3400 52.6609 reunion main 329 303 O____O___OP_O_ jtwc_sh SH111977 -19.3000 52.5000 -1 -19.4000 52.9000 99 9.90000 -19.3000 52.5000 TC 35 -19.2998 52.5043 2 -19.4000 52.9000 TC 70 7 169
1977026S09075 1977 9 SI MM FIFI 1977-02-05 15:00:00 TS -19.6972 52.7347 main 303 278 P____P___PP_P_ SH111977 -19.6575 52.4999 -1 -19.7574 53.0853 99 -19.6575 52.4999 TC 35 -19.6562 52.5033 2 -19.7574 53.0853 TC 67 7 168
1977026S09075 1977 9 SI MM FIFI 1977-02-05 18:00:00 TS -20.0400 52.8200 reunion main 278 251 O____O___OO_O_ jtwc_sh SH111977 -20.0000 52.5000 -1 -20.1000 53.3000 99 9.90000 -20.0000 52.5000 TC 35 -20.0000 52.5000 2 -20.1000 53.3000 TC 65 7 165
1977026S09075 1977 9 SI MM FIFI 1977-02-05 21:00:00 TS -20.3696 52.9257 main 251 232 P____P___PP_P_ SH111977 -20.3075 52.4575 -1 -20.4777 53.6222 99 -20.3075 52.4575 TC 35 -20.2778 52.4690 2 -20.4777 53.6222 TC 65 7 166
1977026S09075 1977 9 SI MM FIFI 1977-02-06 00:00:00 TS -20.7095 53.0059 reunion main 232 228 O____O___OP_O_ jtwc_sh SH111977 -20.6000 52.4000 -1 -20.9000 53.9000 4 9.90000 -20.6000 52.4000 TC 35 -20.5475 52.4294 2 -20.9000 53.9000 TC 65 7 172
1977026S09075 1977 9 SI MM FIFI 1977-02-06 03:00:00 TS -21.0766 53.0309 main 228 228 P____P___PP_P_ SH111977 -20.8700 52.3574 -1 -21.3999 54.0324 4 -20.8700 52.3574 TC 35 -20.8434 52.3751 2 -21.3999 54.0324 TC 62 8 0
1977026S09075 1977 9 SI MM FIFI 1977-02-06 06:00:00 TS -21.4800 52.9800 reunion main 232 232 O____O___OO_O_ jtwc_sh SH111977 -21.2000 52.3000 -1 -21.9000 54.0000 99 9.90000 -21.2000 52.3000 TC 35 -21.2000 52.3000 2 -21.9000 54.0000 TC 60 9 191
1977026S09075 1977 9 SI MM FIFI 1977-02-06 09:00:00 TS -21.9255 52.8516 main 254 254 P____P___PP_P_ SH111977 -21.6625 52.2149 -1 -22.3149 53.8175 99 -21.6625 52.2149 TC 35 -21.6726 52.1929 2 -22.3149 53.8175 TC 60 10 198
1977026S09075 1977 9 SI MM FIFI 1977-02-06 12:00:00 TS -22.4010 52.6531 reunion main 295 295 O____O___OP_O_ jtwc_sh SH111977 -22.2000 52.1000 -1 -22.7000 53.5000 99 9.90000 -22.2000 52.1000 TC 35 -22.2051 52.0656 2 -22.7000 53.5000 TC 60 11 203
1977026S09075 1977 9 SI MM FIFI 1977-02-06 15:00:00 TS -22.8861 52.4061 main 348 348 P____P___PP_P_ SH111977 -22.7500 51.9501 -1 -23.0852 53.1001 99 -22.7500 51.9501 TC 35 -22.7601 51.9304 2 -23.0852 53.1001 TC 57 11 205
1977026S09075 1977 9 SI MM FIFI 1977-02-06 18:00:00 TS -23.3800 52.1600 reunion main 395 395 O____O___OO_O_ jtwc_sh SH111977 -23.3000 51.8000 -1 -23.5000 52.7000 99 9.90000 -23.3000 51.8000 TC 35 -23.3000 51.8000 2 -23.5000 52.7000 TC 55 11 202
1977026S09075 1977 9 SI MM FIFI 1977-02-06 21:00:00 TS -23.9012 51.9627 main 441 428 P____P___PP_P_ SH111977 -23.8225 51.6924 -1 -24.0224 52.3902 99 -23.8225 51.6924 TC 35 -23.8162 51.6487 2 -24.0224 52.3902 TC 52 11 197
1977026S09075 1977 9 SI MM FIFI 1977-02-07 00:00:00 MX -24.3810 51.8222 reunion main 431 431 O____O___OP_O_ jtwc_sh SH111977 -24.3000 51.6000 -1 -24.5000 52.2000 4 9.90000 -24.3000 51.6000 TC 35 -24.3049 51.5109 2 -24.5000 52.2000 EX 50 9 194
1977026S09075 1977 9 SI MM FIFI 1977-02-07 03:00:00 MX -24.7612 51.7334 main 434 434 P____P___PP_P_ SH111977 -24.7450 51.4702 -1 -24.7874 52.1547 4 -24.7450 51.4702 TC 35 -24.7411 51.4175 2 -24.7874 52.1547 EX 47 7 188
1977026S09075 1977 9 SI MM FIFI 1977-02-07 06:00:00 TS -25.0600 51.7200 reunion main 441 441 O____O___OO_O_ jtwc_sh SH111977 -25.1000 51.4000 -1 -25.0000 52.2000 99 9.90000 -25.1000 51.4000 TC 35 -25.1000 51.4000 2 -25.0000 52.2000 TC 45 5 177
1977026S09075 1977 9 SI MM FIFI 1977-02-07 09:00:00 TS -25.3074 51.7612 main 457 457 P____P___PP_P_ SH111977 -25.3374 51.4474 -1 -25.2500 52.2201 99 -25.3374 51.4474 TC 35 -25.3620 51.4711 2 -25.2500 52.2201 TC 42 5 162
1977026S09075 1977 9 SI MM FIFI 1977-02-07 12:00:00 TS -25.5094 51.8844 reunion main 474 474 O____O___OP_O_ jtwc_sh SH111977 -25.5000 51.6000 -1 -25.5000 52.3000 99 9.90000 -25.5000 51.6000 TC 35 -25.5472 51.6221 2 -25.5000 52.3000 TC 40 5 143
1977026S09075 1977 9 SI MM FIFI 1977-02-07 15:00:00 TS -25.7028 52.0894 main 501 501 P____P___PP_P_ SH111977 -25.6650 51.8200 -1 -25.7501 52.4849 99 -25.6650 51.8200 TC 35 -25.6838 51.8370 2 -25.7501 52.4849 TC 40 6 132
1977026S09075 1977 9 SI MM FIFI 1977-02-07 18:00:00 TS -25.8800 52.3400 reunion main 526 526 O____O___OO_O_ jtwc_sh SH111977 -25.8000 52.1000 -1 -26.0000 52.7000 99 9.90000 -25.8000 52.1000 TC 35 -25.8000 52.1000 2 -26.0000 52.7000 TC 40 5 130
1977026S09075 1977 9 SI MM FIFI 1977-02-07 21:00:00 TS -26.0488 52.5539 main 558 558 P____P___PP_P_ SH111977 -25.8999 52.3852 -1 -26.2648 52.8202 99 -25.8999 52.3852 TC 35 -25.9147 52.3584 2 -26.2648 52.8202 TC 40 5 127
1977026S09075 1977 9 SI MM FIFI 1977-02-08 00:00:00 MX -26.2039 52.8123 reunion main 583 583 O____O___OP_O_ jtwc_sh SH111977 -26.0000 52.7000 -1 -26.5000 53.0000 3 9.90000 -26.0000 52.7000 TC 35 -26.0195 52.6615 2 -26.5000 53.0000 EX 40 6 119
1977026S09075 1977 9 SI MM FIFI 1977-02-08 03:00:00 MX -26.3449 53.1609 main 598 598 P____P___PP_P_ SH111977 -26.1273 53.0277 -1 -26.6652 53.3700 3 -26.1273 53.0277 TC 35 -26.1395 53.0088 2 -26.6652 53.3700 EX 40 7 114
1977026S09075 1977 9 SI MM FIFI 1977-02-08 06:00:00 TS -26.5000 53.5600 reunion main 605 601 O____O___OO_O_ jtwc_sh SH111977 -26.3000 53.4000 -1 -26.8000 53.8000 99 9.90000 -26.3000 53.4000 TC 35 -26.3000 53.4000 2 -26.8000 53.8000 TC 40 8 116
1977026S09075 1977 9 SI MM FIFI 1977-02-08 09:00:00 TS -26.6951 53.9596 main 614 611 P____P___PP_P_ SH111977 -26.5274 53.8276 -1 -26.9424 54.1577 99 -26.5274 53.8276 TC 35 -26.5360 53.8273 2 -26.9424 54.1577 TC 40 8 120
1977026S09075 1977 9 SI MM FIFI 1977-02-08 12:00:00 TS -26.9225 54.3794 reunion main 626 626 O____O___OP_O_ jtwc_sh SH111977 -26.8000 54.3000 -1 -27.1000 54.5000 99 9.90000 -26.8000 54.3000 TC 35 -26.8125 54.2969 2 -27.1000 54.5000 TC 40 9 123
1977026S09075 1977 9 SI MM FIFI 1977-02-08 15:00:00 TS -27.1784 54.8067 main 653 652 P____P___PP_P_ SH111977 -27.0999 54.7925 -1 -27.2922 54.8277 99 -27.0999 54.7925 TC 35 -27.1078 54.7932 2 -27.2922 54.8277 TC 37 9 123
1977026S09075 1977 9 SI MM FIFI 1977-02-08 18:00:00 TS -27.4400 55.2600 reunion main 671 671 O____O___OO_O_ jtwc_sh SH111977 -27.4000 55.3000 -1 -27.5000 55.2000 99 9.90000 -27.4000 55.3000 TC 35 -27.4000 55.3000 2 -27.5000 55.2000 TC 35 9 120
1977026S09075 1977 9 SI MM FIFI 1977-02-08 21:00:00 TS -27.6461 55.7036 main 692 692 P____P___PP_P_ SH111977 -27.6573 55.8003 -1 -27.6614 55.6039 99 -27.6573 55.8003 TC 35 -27.5930 55.7094 2 -27.6614 55.6039 TC 35 10 117
1977026S09075 1977 9 SI MM FIFI 1977-02-09 00:00:00 MX -27.8779 56.2274 reunion main 728 728 O____O___OP_O_ jtwc_sh SH111977 -27.9000 56.3000 -1 -27.9000 56.2000 3 9.90000 -27.9000 56.3000 TC 35 -27.7897 56.1372 2 -27.9000 56.2000 EX 35 12 117
1977026S09075 1977 9 SI MM FIFI 1977-02-09 03:00:00 MX -28.1722 56.8727 main 771 771 P____P___PP_P_ SH111977 -28.1040 56.7417 -1 -28.3055 57.1172 3 -28.1040 56.7417 TC 35 -28.0418 56.6460 2 -28.3055 57.1172 EX 35 14 118
1977026S09075 1977 9 SI MM FIFI 1977-02-09 06:00:00 TS -28.5600 57.6600 reunion main 831 831 O____O___OO_O_ jtwc_sh SH111977 -28.4000 57.3000 -1 -28.8000 58.2000 99 9.90000 -28.4000 57.3000 TC 35 -28.4000 57.3000 2 -28.8000 58.2000 TC 35 17 121
1977026S09075 1977 9 SI MM FIFI 1977-02-09 09:00:00 TS -29.0464 58.5506 main 900 900 P____P___PP_P_ SH111977 -28.8820 58.0959 -1 -29.2834 59.2066 99 -28.8820 58.0959 TC 35 -28.9011 58.1479 2 -29.2834 59.2066 TC 35 20 122
1977026S09075 1977 9 SI MM FIFI 1977-02-09 12:00:00 TS -29.6214 59.5910 reunion main 999 999 O____O___OP_O_ jtwc_sh SH111977 -29.5000 59.1000 -1 -29.8000 60.3000 99 9.90000 -29.5000 59.1000 TC 35 -29.5070 59.1550 2 -29.8000 60.3000 TC 35 23 122
1977026S09075 1977 9 SI MM FIFI 1977-02-09 15:00:00 TS -30.2386 60.7787 main 1111 1111 P____P___PP_P_ SH111977 -30.1694 60.2336 -1 -30.3350 61.5708 99 -30.1694 60.2336 TC 35 -30.1841 60.2849 2 -30.3350 61.5708 TC 32 24 122
1977026S09075 1977 9 SI MM FIFI 1977-02-09 18:00:00 TS -30.9000 61.9667 reunion main 1237 1237 O____O___OO_O_ jtwc_sh SH111977 -30.9000 61.5000 -1 -30.9000 62.9000 99 9.90000 -30.9000 61.5000 TC 35 -30.9000 61.5000 2 -30.9000 62.9000 TC 30 25 124
1977026S09075 1977 9 SI MM FIFI 1977-02-09 21:00:00 TS -31.6184 63.1772 main 1355 1355 P____P___PP_P_ SH111977 -31.6495 62.8359 -1 -31.4941 64.1695 99 -31.6495 62.8359 TC 30 -31.6805 62.8674 2 -31.4941 64.1695 TC 30 25 126
1977026S09075 1977 9 SI MM FIFI 1977-02-10 00:00:00 MX -32.3782 64.3990 reunion main 1485 1485 O____O___OP_O_ jtwc_sh SH111977 -32.4000 64.2000 -1 -32.1000 65.4000 5 9.90000 -32.4000 64.2000 TC 25 -32.4735 64.2966 2 -32.1000 65.4000 EX 30 26 127
1977026S09075 1977 9 SI MM FIFI 1977-02-10 03:00:00 TS -33.1698 65.6109 main 1618 1618 P________PP___ SH111977 -33.1530 65.5889 -1 5 -33.1530 65.5889 TC 25 -33.2034 65.6547 2 EX 25 125
1977026S09075 1977 9 SI MM FIFI 1977-02-10 06:00:00 TS -33.8000 66.8000 main 1677 1627 O________OO___ jtwc_sh SH111977 -33.8000 66.8000 -1 -33.8000 66.8000 TC 25 -33.8000 66.8000 1 20 122
1977026S09075 1977 9 SI MM FIFI 1977-02-10 09:00:00 TS -34.2650 67.6806 main 1615 1580 P________PP___ SH111977 -34.2885 67.7093 -1 -34.2885 67.7093 TC 25 -34.2178 67.6232 1 14 122
1977026S09075 1977 9 SI MM FIFI 1977-02-10 12:00:00 TS -34.5636 68.2569 main 1580 1568 O________OP___ jtwc_sh SH111977 -34.6000 68.3000 -1 -34.6000 68.3000 TC 25 -34.4907 68.1706 1 9 121
1977026S09075 1977 9 SI MM FIFI 1977-02-10 15:00:00 TS -34.7199 68.5921 main 1568 1557 P________PP___ SH111977 -34.7454 68.6222 -1 -34.7454 68.6222 TC 25 -34.6688 68.5320 1 5 118
1977026S09075 1977 9 SI MM FIFI 1977-02-10 18:00:00 TS -34.8000 68.8000 main 1557 O________OO___ jtwc_sh SH111977 -34.8000 68.8000 -1 -34.8000 68.8000 TC 25 -34.8000 68.8000 6 4 115

About IBTrACS Database

This database is a web-friendly format of International Best Track Archive for Climate Stewardship (IBTrACS), a global best track data archive curated by NOAA dating back to 1842.

Updated: 2021-10-25